Aeroporto :
LOGIN :

Iscrizione | Disclaimer

   EN    FR    IT 

 










Sommario :    VFR   VFR Marginale   IFR   IFR Intensivo   IFR Molto Intensivo
Visibilità : 
Base nubi : 
>= 8 km
>= 3000ft
5 / 8 km
1000 / 3000 ft
1500m / 5 km
500 / 1000 ft
800 / 1500m
200 / 500 ft
< 800m
< 200 ft
Simboli :   Temporali  Nebbia  Neve Forte  Precipitazioni Forti  Vento > 20 kt
SIGMETs :   Varie  Temporali  Ghiacco  Turbolenza  Onda orograficha  Ceneri Vulcaniche






- Altitudine del aeroporto : 2031 ft


LEGT - Madrid Getafe

ULTIMO METAR :
  • 210800Z 17003KT 9000 SCT003 BKN020 07/07 Q1008

METARs OBSOLETI :
  • 210700Z 17003KT 4000 BR SCT002 BKN003 OVC007 07/07 Q1008
  • 210600Z VRB02KT 3500 -DZ BR FEW001 SCT010 06/06 Q1008
  • 210500Z 19003KT 3800 -DZ BR FEW002 SCT006 BKN009 06/06 Q1008

TAF COR TAF LEGT
Valido dal 21 a 06 ore il 21 a 15 ore UTC


210544Z 2106/2115 VRB03KT 9999 SCT008 BKN020
TEMPO 2106/2115 BKN012
TEMPO 2106/2111 2500 BR BCFG BKN003
PROB40
TEMPO 2106/2110 0400 FG BKN001
PROB30
TEMPO 2106/2115 4000 RA BKN008



MetMap, La meteo Aeronautica in un colpo d'occhio ! - Copyright ORBIFLY Dicembre 2007 - Disclaimer

ORBIFLY MET'MAP TEAM :

Programmazione e sviluppo : Alexandra Zaïnal
Concezione e sviluppo : Baudouin d'Aumeries
Co-Programmazione e sviluppo : Marc-Olivier Méhu
Supporto tecnico e logistico : Manuel Goepfert
Aiuto per la traduzione : Arnaldo La Scala

Contatto : metmap@orbifly.com




FONTI E CREDITI :

   NOAA